createdAt,value
2023-10-06T00:02:32.306Z,64.63
2023-10-06T00:05:00.068Z,64.21
2023-10-06T00:07:27.870Z,64.23
2023-10-06T00:09:56.220Z,64.20
2023-10-06T00:12:27.650Z,64.20
2023-10-06T00:14:57.567Z,64.23
2023-10-06T00:17:29.721Z,64.00
2023-10-06T00:20:01.517Z,64.32
2023-10-06T00:22:30.512Z,64.35
2023-10-06T00:25:01.011Z,64.43
2023-10-06T00:27:32.021Z,64.24
2023-10-06T00:30:00.177Z,64.78
2023-10-06T00:32:28.758Z,64.62
2023-10-06T00:35:19.189Z,64.41
2023-10-06T00:37:46.440Z,65.62
2023-10-06T00:40:26.086Z,65.45
2023-10-06T00:42:58.445Z,65.16
2023-10-06T00:45:27.608Z,66.07
2023-10-06T00:47:55.539Z,66.03
2023-10-06T00:50:26.501Z,65.85
2023-10-06T00:52:57.322Z,65.76
2023-10-06T00:55:24.786Z,65.95
2023-10-06T00:57:54.788Z,66.52
2023-10-06T01:00:22.943Z,66.98
2023-10-06T01:02:51.498Z,66.59
2023-10-06T01:05:22.756Z,66.38
2023-10-06T01:07:52.963Z,66.27
2023-10-06T01:10:29.319Z,67.27
2023-10-06T01:12:58.774Z,68.28
2023-10-06T01:15:30.696Z,67.96
2023-10-06T01:18:00.222Z,67.63
2023-10-06T01:20:43.020Z,67.65
2023-10-06T01:23:20.933Z,67.14
2023-10-06T01:25:48.868Z,67.65
2023-10-06T01:28:16.078Z,67.02
2023-10-06T01:30:43.421Z,66.92
2023-10-06T01:33:12.397Z,66.63
2023-10-06T01:35:44.053Z,66.77
2023-10-06T01:38:21.376Z,66.37
2023-10-06T01:40:52.218Z,66.62
2023-10-06T01:43:24.149Z,66.98
2023-10-06T01:45:52.910Z,66.91
2023-10-06T01:48:22.850Z,66.82
2023-10-06T01:50:50.425Z,66.85
2023-10-06T01:53:21.537Z,66.95
2023-10-06T01:55:57.978Z,67.40
2023-10-06T01:58:25.277Z,67.27
2023-10-06T02:00:52.499Z,67.23
2023-10-06T02:03:22.552Z,66.76
2023-10-06T02:05:50.176Z,67.08
2023-10-06T02:08:23.380Z,66.89
2023-10-06T02:10:51.953Z,67.21
2023-10-06T02:13:25.595Z,67.14
2023-10-06T02:16:04.771Z,67.22
2023-10-06T02:18:38.481Z,67.68
2023-10-06T02:21:10.876Z,67.58
2023-10-06T02:23:42.836Z,67.01
2023-10-06T02:26:13.718Z,67.77
2023-10-06T02:28:45.185Z,67.80
2023-10-06T02:31:13.104Z,67.72
2023-10-06T02:33:48.016Z,67.41
2023-10-06T02:36:24.255Z,67.14
2023-10-06T02:38:52.798Z,67.71
2023-10-06T02:41:22.226Z,68.00
2023-10-06T02:43:51.341Z,67.80
2023-10-06T02:46:24.176Z,67.37
2023-10-06T02:48:52.096Z,67.63
2023-10-06T02:51:22.320Z,67.77
2023-10-06T02:53:52.763Z,68.02
2023-10-06T02:56:22.479Z,67.89
2023-10-06T02:58:52.266Z,67.97
2023-10-06T03:01:20.136Z,68.85
2023-10-06T03:03:51.853Z,68.54
2023-10-06T03:06:21.236Z,68.92
2023-10-06T03:08:49.169Z,68.32
2023-10-06T03:11:26.323Z,68.28
2023-10-06T03:13:56.456Z,68.17
2023-10-06T03:16:26.944Z,68.12
2023-10-06T03:18:55.722Z,68.75
2023-10-06T03:21:24.041Z,68.51
2023-10-06T03:23:59.130Z,67.73
2023-10-06T03:26:26.790Z,67.50
2023-10-06T03:28:54.752Z,68.17
2023-10-06T03:31:22.959Z,67.85
2023-10-06T03:33:56.401Z,68.44
2023-10-06T03:36:39.607Z,68.54
2023-10-06T03:39:13.065Z,68.28
2023-10-06T03:41:45.532Z,68.41
2023-10-06T03:44:13.779Z,69.06
2023-10-06T03:46:43.582Z,68.48
2023-10-06T03:49:14.794Z,68.26
2023-10-06T03:51:42.346Z,68.12
2023-10-06T03:54:10.755Z,69.94
2023-10-06T03:56:38.182Z,69.84
2023-10-06T03:59:13.965Z,69.20
2023-10-06T04:01:43.819Z,68.98
2023-10-06T04:04:11.309Z,69.03
2023-10-06T04:06:38.936Z,69.27
2023-10-06T04:09:06.814Z,69.30
2023-10-06T04:11:35.555Z,69.21
2023-10-06T04:14:03.069Z,68.69
2023-10-06T04:16:31.996Z,70.33
2023-10-06T04:18:59.241Z,70.05
2023-10-06T04:21:26.541Z,69.82
2023-10-06T04:23:54.223Z,69.81
2023-10-06T04:26:24.103Z,70.55
2023-10-06T04:28:51.193Z,70.75
2023-10-06T04:31:18.322Z,70.55
2023-10-06T04:33:45.900Z,69.77
2023-10-06T04:36:22.215Z,69.77
2023-10-06T04:38:49.600Z,71.16
2023-10-06T04:41:16.794Z,70.64
2023-10-06T04:43:46.343Z,71.13
2023-10-06T04:46:15.765Z,71.42
2023-10-06T04:48:43.306Z,71.02
2023-10-06T04:51:10.964Z,70.60
2023-10-06T04:53:39.638Z,70.38
2023-10-06T04:56:10.057Z,70.56
2023-10-06T04:58:40.366Z,70.45
2023-10-06T05:01:09.776Z,70.44
2023-10-06T05:03:47.806Z,70.83
2023-10-06T05:06:19.818Z,72.16
2023-10-06T05:08:51.034Z,72.54
2023-10-06T05:11:20.160Z,73.07
2023-10-06T05:13:54.314Z,73.13
2023-10-06T05:16:24.911Z,73.61
2023-10-06T05:18:53.008Z,73.86
2023-10-06T05:21:21.799Z,74.33
2023-10-06T05:23:49.169Z,74.77
2023-10-06T05:26:17.494Z,75.70
2023-10-06T05:28:45.782Z,76.05
2023-10-06T05:31:13.855Z,75.98
2023-10-06T05:33:42.325Z,75.24
2023-10-06T05:36:19.320Z,75.47
2023-10-06T05:38:48.052Z,75.48
2023-10-06T05:41:16.545Z,76.88
2023-10-06T05:43:44.967Z,77.96
2023-10-06T05:46:12.964Z,78.69
2023-10-06T05:48:41.612Z,78.21
2023-10-06T05:51:12.762Z,77.95
2023-10-06T05:53:45.336Z,77.17
2023-10-06T05:56:13.777Z,76.56
2023-10-06T05:58:42.569Z,75.64
2023-10-06T06:01:20.170Z,75.27
2023-10-06T06:03:48.553Z,74.95
2023-10-06T06:06:17.743Z,74.49
2023-10-06T06:08:48.956Z,74.31
2023-10-06T06:11:17.566Z,74.52
2023-10-06T06:13:48.256Z,75.02
2023-10-06T06:16:20.446Z,75.58
2023-10-06T06:18:49.687Z,75.66
2023-10-06T06:21:17.934Z,75.49
2023-10-06T06:23:47.823Z,75.22
2023-10-06T06:26:18.562Z,74.85
2023-10-06T06:28:46.311Z,75.21
2023-10-06T06:31:21.164Z,74.77
2023-10-06T06:33:58.523Z,74.63
2023-10-06T06:36:27.184Z,74.33
2023-10-06T06:38:56.015Z,74.36
2023-10-06T06:41:23.396Z,74.52
2023-10-06T06:43:50.963Z,75.03
2023-10-06T06:46:18.643Z,75.09
2023-10-06T06:48:48.178Z,75.43
2023-10-06T06:51:15.477Z,75.61
2023-10-06T06:53:42.641Z,75.12
2023-10-06T06:56:12.277Z,75.30
2023-10-06T06:58:40.434Z,74.70
2023-10-06T07:01:16.356Z,74.64
2023-10-06T07:03:43.912Z,74.65
2023-10-06T07:06:17.797Z,73.62
2023-10-06T07:08:48.523Z,73.02
2023-10-06T07:11:17.169Z,72.09
2023-10-06T07:13:46.989Z,71.41
2023-10-06T07:16:16.146Z,72.00
2023-10-06T07:18:43.680Z,72.29
2023-10-06T07:21:12.515Z,71.75
2023-10-06T07:23:39.918Z,69.24
2023-10-06T07:26:14.825Z,66.62
2023-10-06T07:28:42.290Z,66.83
2023-10-06T07:31:15.018Z,68.61
2023-10-06T07:33:45.730Z,66.61
2023-10-06T07:36:19.608Z,68.42
2023-10-06T07:38:49.870Z,65.11
2023-10-06T07:41:27.080Z,63.52
2023-10-06T07:43:54.746Z,65.23
2023-10-06T07:46:22.113Z,64.97
2023-10-06T07:48:51.988Z,64.20
2023-10-06T07:51:20.576Z,65.52
2023-10-06T07:53:47.847Z,65.53
2023-10-06T07:56:16.057Z,63.49
2023-10-06T07:58:43.392Z,64.39
2023-10-06T08:01:12.571Z,64.96
2023-10-06T08:03:41.085Z,64.70
2023-10-06T08:06:12.348Z,63.42
2023-10-06T08:08:39.774Z,61.88
2023-10-06T08:11:07.890Z,61.44
2023-10-06T08:13:35.843Z,62.39
2023-10-06T08:16:04.057Z,61.64
2023-10-06T08:18:31.622Z,61.60
2023-10-06T08:21:02.353Z,61.40
2023-10-06T08:23:30.904Z,61.21
2023-10-06T08:26:00.977Z,60.27
2023-10-06T08:28:28.935Z,59.19
2023-10-06T08:30:56.257Z,59.10
2023-10-06T08:33:27.481Z,58.51
2023-10-06T08:35:59.059Z,57.52
2023-10-06T08:38:26.795Z,56.65
2023-10-06T08:41:02.152Z,56.61
2023-10-06T08:43:29.743Z,56.88
2023-10-06T08:46:01.516Z,56.57
2023-10-06T08:48:37.503Z,55.52
2023-10-06T08:51:09.181Z,55.04
2023-10-06T08:53:42.042Z,56.08
2023-10-06T08:56:09.485Z,55.66
2023-10-06T08:58:37.133Z,55.89
2023-10-06T09:01:14.657Z,55.71
2023-10-06T09:03:41.932Z,55.12
2023-10-06T09:06:13.356Z,55.29
2023-10-06T09:08:42.951Z,54.43
2023-10-06T09:11:14.043Z,53.60
2023-10-06T09:13:41.458Z,52.01
2023-10-06T09:16:08.809Z,53.34
2023-10-06T09:18:40.452Z,51.90
2023-10-06T09:21:22.457Z,52.24
2023-10-06T09:23:50.818Z,52.74
2023-10-06T09:26:38.614Z,51.92
2023-10-06T09:29:05.955Z,52.08
2023-10-06T09:31:46.330Z,51.42
2023-10-06T09:34:24.361Z,50.93
2023-10-06T09:36:53.103Z,50.67
2023-10-06T09:39:28.126Z,50.92
2023-10-06T09:41:55.911Z,51.89
2023-10-06T09:44:24.445Z,52.29
2023-10-06T09:46:56.036Z,53.01
2023-10-06T09:49:23.646Z,52.70
2023-10-06T09:51:54.008Z,51.78
2023-10-06T09:54:22.527Z,49.27
2023-10-06T09:56:50.656Z,50.43
2023-10-06T09:59:18.743Z,51.20
2023-10-06T10:01:49.494Z,52.30
2023-10-06T10:04:18.137Z,52.83
2023-10-06T10:06:46.285Z,49.89
2023-10-06T10:09:18.425Z,51.94
2023-10-06T10:11:54.430Z,50.28
2023-10-06T10:14:50.668Z,51.92
2023-10-06T10:17:20.064Z,50.66
2023-10-06T10:19:49.231Z,52.22
2023-10-06T10:22:17.666Z,52.05
2023-10-06T10:27:23.753Z,52.13
2023-10-06T10:29:51.252Z,53.04
2023-10-06T10:32:19.570Z,54.38
2023-10-06T10:35:18.505Z,54.60
2023-10-06T10:38:08.065Z,55.34
2023-10-06T10:40:49.157Z,54.88
2023-10-06T10:43:17.788Z,56.23
2023-10-06T10:45:45.539Z,56.33
2023-10-06T10:48:17.039Z,56.99
2023-10-06T10:51:07.270Z,59.03
2023-10-06T10:53:39.566Z,60.98
2023-10-06T10:56:08.324Z,60.46
2023-10-06T10:58:49.623Z,61.80
2023-10-06T11:01:31.073Z,61.84
2023-10-06T11:04:22.927Z,63.35
2023-10-06T11:06:51.864Z,63.96
2023-10-06T11:09:27.748Z,63.59
2023-10-06T11:12:23.162Z,63.54
2023-10-06T11:14:52.765Z,63.15
2023-10-06T11:17:24.598Z,63.06
2023-10-06T11:20:24.158Z,63.43
2023-10-06T11:22:55.910Z,63.35
2023-10-06T11:25:30.027Z,63.40
2023-10-06T11:28:10.337Z,63.01
2023-10-06T11:30:40.312Z,63.01
2023-10-06T11:33:10.244Z,62.61
2023-10-06T11:35:42.218Z,63.12
2023-10-06T11:38:13.609Z,62.57
2023-10-06T11:40:42.421Z,63.00
2023-10-06T11:43:14.808Z,63.16
2023-10-06T11:45:43.917Z,62.57
2023-10-06T11:48:25.879Z,61.62
2023-10-06T11:51:14.075Z,62.26
2023-10-06T11:53:41.925Z,62.43
2023-10-06T11:56:17.058Z,62.83
2023-10-06T11:58:46.318Z,62.70
2023-10-06T12:01:38.984Z,63.34
2023-10-06T12:04:24.325Z,63.31
2023-10-06T12:06:52.693Z,63.03
2023-10-06T12:09:31.071Z,63.67
2023-10-06T12:12:01.365Z,63.57
2023-10-06T12:14:29.562Z,63.53
2023-10-06T12:16:56.899Z,63.40
2023-10-06T12:19:25.143Z,63.65
2023-10-06T12:21:53.341Z,63.63
2023-10-06T12:24:23.833Z,63.33
2023-10-06T12:26:51.347Z,63.29
2023-10-06T12:29:18.851Z,62.95
2023-10-06T12:31:47.475Z,62.65
2023-10-06T12:34:17.287Z,63.37
2023-10-06T12:36:53.157Z,63.40
2023-10-06T12:39:38.286Z,63.27
2023-10-06T12:42:06.510Z,64.51
2023-10-06T12:44:36.136Z,64.46
2023-10-06T12:47:05.389Z,64.55
2023-10-06T12:49:33.010Z,65.55
2023-10-06T12:52:00.789Z,65.65
2023-10-06T12:54:27.949Z,65.38
2023-10-06T12:56:55.128Z,65.29
2023-10-06T12:59:22.451Z,66.73
2023-10-06T13:01:50.566Z,67.04
2023-10-06T13:04:19.348Z,67.29
2023-10-06T13:06:48.919Z,66.74
2023-10-06T13:09:22.026Z,66.83
2023-10-06T13:11:49.584Z,66.83
2023-10-06T13:14:17.284Z,66.87
2023-10-06T13:16:44.720Z,66.95
2023-10-06T13:19:12.086Z,66.82
2023-10-06T13:21:39.239Z,66.96
2023-10-06T13:24:09.352Z,66.40
2023-10-06T13:26:44.319Z,66.64
2023-10-06T13:29:12.240Z,65.59
2023-10-06T13:31:40.716Z,65.47
2023-10-06T13:34:09.364Z,65.72
2023-10-06T13:36:37.001Z,65.28
2023-10-06T13:39:10.421Z,65.33
2023-10-06T13:41:43.589Z,65.14
2023-10-06T13:44:11.183Z,65.40
2023-10-06T13:46:38.653Z,65.82
2023-10-06T13:49:05.915Z,65.72
2023-10-06T13:51:34.325Z,65.44
2023-10-06T13:54:04.527Z,65.65
2023-10-06T13:56:35.688Z,65.63
2023-10-06T13:59:05.523Z,65.39
2023-10-06T14:01:35.816Z,65.40
2023-10-06T14:04:04.779Z,65.64
2023-10-06T14:06:32.001Z,65.31
2023-10-06T14:09:00.372Z,65.65
2023-10-06T14:11:29.288Z,65.48
2023-10-06T14:13:58.647Z,65.00
2023-10-06T14:16:26.675Z,65.24
2023-10-06T14:18:54.807Z,64.96
2023-10-06T14:21:21.973Z,64.67
2023-10-06T14:23:50.840Z,64.86
2023-10-06T14:26:20.204Z,64.57
2023-10-06T14:28:47.604Z,64.70
2023-10-06T14:31:21.357Z,64.82
2023-10-06T14:34:11.485Z,64.92
2023-10-06T14:36:39.505Z,64.71
2023-10-06T14:39:25.445Z,64.91
2023-10-06T14:42:01.816Z,65.19
2023-10-06T14:44:47.738Z,65.32
2023-10-06T14:47:15.075Z,65.29
2023-10-06T14:49:44.907Z,65.57
2023-10-06T14:52:12.956Z,66.05
2023-10-06T14:54:40.130Z,65.39
2023-10-06T14:57:07.281Z,65.83
2023-10-06T14:59:35.316Z,66.31
2023-10-06T15:02:08.539Z,66.66
2023-10-06T15:04:36.947Z,66.13
2023-10-06T15:07:04.311Z,65.87
2023-10-06T15:09:36.287Z,65.81
2023-10-06T15:12:05.475Z,64.97
2023-10-06T15:14:35.152Z,65.41
2023-10-06T15:17:05.281Z,66.38
2023-10-06T15:19:36.768Z,66.37
2023-10-06T15:22:04.844Z,66.52
2023-10-06T15:24:31.981Z,66.43
2023-10-06T15:26:59.137Z,66.26
2023-10-06T15:29:29.376Z,66.46
2023-10-06T15:31:57.255Z,66.75
2023-10-06T15:34:25.428Z,66.62
2023-10-06T15:36:52.576Z,66.06
2023-10-06T15:39:20.228Z,66.43
2023-10-06T15:41:50.165Z,66.33
2023-10-06T15:44:19.561Z,66.27
2023-10-06T15:46:47.873Z,66.54
2023-10-06T15:49:19.801Z,66.67
2023-10-06T15:51:48.962Z,66.97
2023-10-06T15:54:17.392Z,67.31
2023-10-06T15:56:45.316Z,66.98
2023-10-06T15:59:16.704Z,66.49
2023-10-06T16:01:46.022Z,66.95
2023-10-06T16:04:14.670Z,66.98
2023-10-06T16:06:44.266Z,67.39
2023-10-06T16:09:17.206Z,67.17
2023-10-06T16:11:45.293Z,67.33
2023-10-06T16:14:17.097Z,67.66
2023-10-06T16:16:45.976Z,67.58
2023-10-06T16:19:15.020Z,67.32
2023-10-06T16:21:43.175Z,67.34
2023-10-06T16:24:12.929Z,67.63
2023-10-06T16:26:40.439Z,67.40
2023-10-06T16:29:09.033Z,67.10
2023-10-06T16:31:36.710Z,66.46
2023-10-06T16:34:04.816Z,66.04
2023-10-06T16:36:32.279Z,64.95
2023-10-06T16:39:00.651Z,64.19
2023-10-06T16:41:27.849Z,64.89
2023-10-06T16:43:57.207Z,65.55
2023-10-06T16:46:24.902Z,64.93
2023-10-06T16:48:52.709Z,64.08
2023-10-06T16:51:21.537Z,63.05
2023-10-06T16:53:50.035Z,63.09
2023-10-06T16:56:20.074Z,62.33
2023-10-06T16:58:47.860Z,62.36
2023-10-06T17:01:15.722Z,62.32
2023-10-06T17:03:43.247Z,62.54
2023-10-06T17:06:15.127Z,62.16
2023-10-06T17:08:42.438Z,62.30
2023-10-06T17:11:16.132Z,62.35
2023-10-06T17:13:43.688Z,62.37
2023-10-06T17:16:14.641Z,62.25
2023-10-06T17:18:45.283Z,62.13
2023-10-06T17:21:14.048Z,62.01
2023-10-06T17:23:41.424Z,62.73
2023-10-06T17:26:10.079Z,61.90
2023-10-06T17:28:37.484Z,62.18
2023-10-06T17:31:04.909Z,61.32
2023-10-06T17:33:33.605Z,61.58
2023-10-06T17:36:02.350Z,60.88
2023-10-06T17:38:29.592Z,60.93
2023-10-06T17:41:00.878Z,59.89
2023-10-06T17:43:28.665Z,60.40
2023-10-06T17:45:56.823Z,60.08
2023-10-06T17:48:25.003Z,60.18
2023-10-06T17:50:52.405Z,60.15
2023-10-06T17:53:19.768Z,60.52
2023-10-06T17:55:57.598Z,59.82
2023-10-06T17:58:24.897Z,59.77
2023-10-06T18:00:53.114Z,60.39
2023-10-06T18:03:20.644Z,60.50
2023-10-06T18:05:49.731Z,60.68
2023-10-06T18:08:17.912Z,61.55
2023-10-06T18:10:49.342Z,61.99
2023-10-06T18:13:18.014Z,62.60
2023-10-06T18:15:48.447Z,62.65
2023-10-06T18:18:15.658Z,63.34
2023-10-06T18:20:44.479Z,64.45
2023-10-06T18:23:14.417Z,64.41
2023-10-06T18:25:41.868Z,64.83
2023-10-06T18:28:09.298Z,64.75
2023-10-06T18:30:36.470Z,64.32
2023-10-06T18:33:07.765Z,64.15
2023-10-06T18:35:37.938Z,62.66
2023-10-06T18:38:05.231Z,61.95
2023-10-06T18:40:34.210Z,60.84
2023-10-06T18:43:02.189Z,59.60
2023-10-06T18:45:34.324Z,60.85
2023-10-06T18:48:02.595Z,62.08
2023-10-06T18:50:31.821Z,62.96
2023-10-06T18:52:59.142Z,63.59
2023-10-06T18:55:26.343Z,63.63
2023-10-06T18:57:55.262Z,64.00
2023-10-06T19:00:24.299Z,63.92
2023-10-06T19:02:52.280Z,63.38
2023-10-06T19:05:19.792Z,63.08
2023-10-06T19:07:47.264Z,63.42
2023-10-06T19:10:15.914Z,63.91
2023-10-06T19:12:46.807Z,64.50
2023-10-06T19:15:14.316Z,64.01
2023-10-06T19:17:42.564Z,64.27
2023-10-06T19:20:10.580Z,63.88
2023-10-06T19:22:39.484Z,63.32
2023-10-06T19:25:11.230Z,63.56
2023-10-06T19:27:39.609Z,62.42
2023-10-06T19:30:11.284Z,62.29
2023-10-06T19:32:39.231Z,62.96
2023-10-06T19:35:10.646Z,63.11
2023-10-06T19:37:39.203Z,62.32
2023-10-06T19:40:10.767Z,62.87
2023-10-06T19:42:41.297Z,62.71
2023-10-06T19:45:08.984Z,62.51
2023-10-06T19:47:36.767Z,63.52
2023-10-06T19:50:13.042Z,63.61
2023-10-06T19:52:41.240Z,63.50
2023-10-06T19:55:09.375Z,63.63
2023-10-06T19:57:37.364Z,63.54
2023-10-06T20:00:12.498Z,64.01
2023-10-06T20:02:41.950Z,64.02
2023-10-06T20:05:11.830Z,63.65
2023-10-06T20:07:39.077Z,63.53
2023-10-06T20:10:06.954Z,63.50
2023-10-06T20:12:34.114Z,63.28
2023-10-06T20:15:03.822Z,63.81
2023-10-06T20:17:31.977Z,64.04
2023-10-06T20:19:59.291Z,64.39
2023-10-06T20:22:27.542Z,65.35
2023-10-06T20:24:54.845Z,65.44
2023-10-06T20:27:22.876Z,65.38
2023-10-06T20:29:50.190Z,64.90
2023-10-06T20:32:17.509Z,64.99
2023-10-06T20:34:45.040Z,65.23
2023-10-06T20:37:12.230Z,65.02
2023-10-06T20:39:39.464Z,65.06
2023-10-06T20:42:06.959Z,65.32
2023-10-06T20:44:34.292Z,65.32
2023-10-06T20:47:01.768Z,65.28
2023-10-06T20:49:29.105Z,65.47
2023-10-06T20:51:56.491Z,65.99
2023-10-06T20:54:23.723Z,66.47
2023-10-06T20:56:52.977Z,66.67
2023-10-06T20:59:20.205Z,66.64
2023-10-06T21:01:49.250Z,66.62
2023-10-06T21:04:16.623Z,66.84
2023-10-06T21:06:44.158Z,66.83
2023-10-06T21:09:11.390Z,66.34
2023-10-06T21:11:41.327Z,66.21
2023-10-06T21:14:13.687Z,66.41
2023-10-06T21:16:41.086Z,66.81
2023-10-06T21:19:08.506Z,67.25
2023-10-06T21:21:35.758Z,67.54
2023-10-06T21:24:03.206Z,67.54
2023-10-06T21:26:30.428Z,67.62
2023-10-06T21:28:57.666Z,67.71
2023-10-06T21:31:25.095Z,67.55
2023-10-06T21:33:52.433Z,67.54
2023-10-06T21:36:20.489Z,66.44
2023-10-06T21:38:47.980Z,66.76
2023-10-06T21:41:15.942Z,66.97
2023-10-06T21:43:43.357Z,67.07
2023-10-06T21:46:11.321Z,67.07
2023-10-06T21:48:38.457Z,67.93
2023-10-06T21:51:07.741Z,68.26
2023-10-06T21:53:35.143Z,68.18
2023-10-06T21:56:13.162Z,68.32
2023-10-06T21:58:45.370Z,68.03
2023-10-06T22:01:21.019Z,67.71
2023-10-06T22:03:49.582Z,67.59
2023-10-06T22:06:20.752Z,67.64
2023-10-06T22:08:48.188Z,67.92
2023-10-06T22:11:16.816Z,67.83
2023-10-06T22:13:44.128Z,67.89
2023-10-06T22:16:14.028Z,68.20
2023-10-06T22:18:42.268Z,68.17
2023-10-06T22:21:11.361Z,68.15
2023-10-06T22:23:39.330Z,68.40
2023-10-06T22:26:06.697Z,68.03
2023-10-06T22:28:33.979Z,67.94
2023-10-06T22:31:05.510Z,67.70
2023-10-06T22:33:33.528Z,67.39
2023-10-06T22:36:02.106Z,67.41
2023-10-06T22:38:29.373Z,66.34
2023-10-06T22:40:57.280Z,66.50
2023-10-06T22:43:24.694Z,66.35
2023-10-06T22:45:51.984Z,66.71
2023-10-06T22:48:19.288Z,66.73
2023-10-06T22:50:46.564Z,64.91
2023-10-06T22:53:13.884Z,64.38
2023-10-06T22:55:41.340Z,64.46
2023-10-06T22:58:08.703Z,64.94
2023-10-06T23:00:36.403Z,64.77
2023-10-06T23:03:03.915Z,63.89
2023-10-06T23:05:31.332Z,63.90
2023-10-06T23:07:58.522Z,64.12
2023-10-06T23:10:27.911Z,64.50
2023-10-06T23:12:56.961Z,65.08
2023-10-06T23:15:24.318Z,65.64
2023-10-06T23:17:51.774Z,65.81
2023-10-06T23:20:22.091Z,65.51
2023-10-06T23:23:00.406Z,65.64
2023-10-06T23:25:37.965Z,65.28
2023-10-06T23:28:08.400Z,64.60
2023-10-06T23:30:38.332Z,65.08
2023-10-06T23:33:06.138Z,65.76
2023-10-06T23:35:33.525Z,66.57
2023-10-06T23:38:01.373Z,66.68
2023-10-06T23:40:34.876Z,66.94
2023-10-06T23:43:02.022Z,67.16
2023-10-06T23:45:32.548Z,67.42
2023-10-06T23:48:01.013Z,67.28
2023-10-06T23:50:31.671Z,66.85
2023-10-06T23:53:03.568Z,67.87
2023-10-06T23:55:33.240Z,66.93
2023-10-06T23:58:01.509Z,66.39
